Time;durP1;ratioP1;P1;durP2;ratioP2;P2;SDS_P1;SDS_P2;PMS_P1;PMS_P2;Temp;Humidity;BMP_temperature;BMP_pressure;BME280_temperature;BME280_humidity;BME280_pressure;Samples;Min_cycle;Max_cycle;Signal;HPM_P1;HPM_P2
2024/04/05 00:01:15;;;;;;;;;;;;;;;12.67;100.00;97739.81;5060876;28;19924;-45
2024/04/05 00:03:40;;;;;;;;;;;;;;;12.84;100.00;97739.50;5065891;28;19938;-45
2024/04/05 00:06:05;;;;;;;;;;;;;;;12.83;100.00;97732.63;5067891;28;20375;-45
2024/04/05 00:08:33;;;;;;;;;;;;;;;12.76;100.00;97739.22;5061042;28;20020;-45
2024/04/05 00:10:58;;;;;;;;;;;;;;;12.75;100.00;97742.75;5063951;28;19953;-45
2024/04/05 00:13:23;;;;;;;;;;;;;;;12.85;100.00;97741.19;5062002;28;20289;-46
2024/04/05 00:15:49;;;;;;;;;;;;;;;12.82;100.00;97746.59;5058949;28;20191;-45
2024/04/05 00:18:14;;;;;;;;;;;;;;;12.82;100.00;97744.00;5069001;28;19912;-46
2024/04/05 00:20:39;;;;;;;;;;;;;;;12.76;100.00;97741.81;5064747;28;19934;-45
2024/04/05 00:23:04;;;;;;;;;;;;;;;12.81;100.00;97739.72;5066250;28;20006;-46
2024/04/05 00:25:29;;;;;;;;;;;;;;;12.77;100.00;97739.09;5058205;28;19978;-46
2024/04/05 00:27:55;;;;;;;;;;;;;;;12.73;100.00;97742.03;5072159;28;20028;-44
2024/04/05 00:30:20;;;;;;;;;;;;;;;12.65;100.00;97733.88;5067162;28;20027;-45
2024/04/05 00:32:45;;;;;;;;;;;;;;;12.76;100.00;97726.16;5066592;28;20034;-45
2024/04/05 00:35:10;;;;;;;;;;;;;;;12.84;100.00;97721.22;5066362;28;19924;-44
2024/04/05 00:37:36;;;;;;;;;;;;;;;12.79;100.00;97731.16;5060120;28;19994;-46
2024/04/05 00:40:01;;;;;;;;;;;;;;;12.79;100.00;97725.94;5066915;28;19951;-44
2024/04/05 00:42:26;;;;;;;;;;;;;;;12.80;100.00;97722.38;5061146;28;19966;-45
2024/04/05 00:44:51;;;;;;;;;;;;;;;12.76;100.00;97726.16;5062868;28;20259;-44
2024/04/05 00:47:16;;;;;;;;;;;;;;;12.76;100.00;97726.16;5062681;28;20389;-44
2024/04/05 00:49:42;;;;;;;;;;;;;;;12.63;100.00;97720.94;5062035;28;19962;-45
2024/04/05 00:52:08;;;;;;;;;;;;;;;12.65;100.00;97728.66;5063236;28;20339;-44
2024/04/05 00:54:33;;;;;;;;;;;;;;;12.66;100.00;97725.09;5060991;28;20018;-46
2024/04/05 00:56:58;;;;;;;;;;;;;;;12.75;100.00;97719.25;5060272;28;20058;-45
2024/04/05 00:59:26;;;;;;;;;;;;;;;12.77;100.00;97722.59;5057270;28;19917;-45
2024/04/05 01:01:51;;;;;;;;;;;;;;;12.69;100.00;97715.28;5062507;28;19993;-45
2024/04/05 01:04:17;;;;;;;;;;;;;;;12.68;100.00;97712.78;5062365;28;20407;-46
2024/04/05 01:06:43;;;;;;;;;;;;;;;12.75;100.00;97711.41;5065115;28;20044;-46
2024/04/05 01:09:08;;;;;;;;;;;;;;;12.51;100.00;97707.91;5062524;28;19943;-46
2024/04/05 01:11:33;;;;;;;;;;;;;;;12.62;100.00;97713.19;5056401;28;19916;-46
2024/04/05 01:13:58;;;;;;;;;;;;;;;12.81;100.00;97710.97;5068801;28;19938;-46
2024/04/05 01:16:24;;;;;;;;;;;;;;;12.65;100.00;97707.78;5062203;28;19997;-45
2024/04/05 01:18:50;;;;;;;;;;;;;;;12.72;100.00;97709.03;5063560;28;19953;-45
2024/04/05 01:21:16;;;;;;;;;;;;;;;12.74;100.00;97707.13;5068517;28;20363;-45
2024/04/05 01:23:42;;;;;;;;;;;;;;;12.81;100.00;97708.38;5062876;28;20324;-47
2024/04/05 01:26:07;;;;;;;;;;;;;;;12.69;100.00;97711.81;5066344;28;20006;-45
2024/04/05 01:28:32;;;;;;;;;;;;;;;12.67;100.00;97705.88;5070054;28;19924;-45
2024/04/05 01:30:58;;;;;;;;;;;;;;;12.62;100.00;97702.75;5074261;28;19920;-45
2024/04/05 01:33:23;;;;;;;;;;;;;;;12.59;100.00;97702.97;5073385;28;19950;-45
2024/04/05 01:35:48;;;;;;;;;;;;;;;12.60;100.00;97704.63;5065116;28;19912;-45
2024/04/05 01:38:13;;;;;;;;;;;;;;;12.76;100.00;97700.84;5070814;28;20003;-46
2024/04/05 01:40:39;;;;;;;;;;;;;;;12.58;100.00;97699.50;5064894;28;19935;-46
2024/04/05 01:43:04;;;;;;;;;;;;;;;12.59;100.00;97698.59;5067933;28;19924;-46
2024/04/05 01:45:29;;;;;;;;;;;;;;;12.67;100.00;97700.66;5069134;28;20189;-46
2024/04/05 01:47:54;;;;;;;;;;;;;;;12.52;100.00;97696.50;5067545;28;19945;-47
2024/04/05 01:50:19;;;;;;;;;;;;;;;12.51;100.00;97690.44;5069490;28;19951;-45
2024/04/05 01:52:47;;;;;;;;;;;;;;;12.60;100.00;97683.75;5069714;28;20047;-45
2024/04/05 01:55:12;;;;;;;;;;;;;;;12.66;100.00;97683.34;5068433;28;19917;-48
2024/04/05 01:57:38;;;;;;;;;;;;;;;12.59;100.00;97676.88;5072530;28;19925;-46
2024/04/05 02:00:05;;;;;;;;;;;;;;;12.55;100.00;97680.63;5070968;28;19940;-46
2024/04/05 02:02:30;;;;;;;;;;;;;;;12.53;100.00;97682.50;5073163;28;20251;-46
2024/04/05 02:04:56;;;;;;;;;;;;;;;12.50;100.00;97678.34;5075881;28;20181;-45
2024/04/05 02:07:24;;;;;;;;;;;;;;;12.46;100.00;97683.88;5075796;28;19935;-47
2024/04/05 02:09:50;;;;;;;;;;;;;;;12.43;100.00;97677.09;5073369;28;20339;-46
2024/04/05 02:12:15;;;;;;;;;;;;;;;12.54;100.00;97671.13;5067041;28;20022;-47
2024/04/05 02:14:41;;;;;;;;;;;;;;;12.33;100.00;97675.22;5065458;28;20294;-46
2024/04/05 02:17:06;;;;;;;;;;;;;;;12.31;100.00;97674.50;5068605;28;19944;-48
2024/04/05 02:19:32;;;;;;;;;;;;;;;12.21;100.00;97683.88;5068445;28;19917;-47
2024/04/05 02:21:57;;;;;;;;;;;;;;;12.21;100.00;97678.66;5069704;28;20384;-47
2024/04/05 02:24:23;;;;;;;;;;;;;;;12.16;100.00;97675.53;5070344;28;19955;-47
2024/04/05 02:26:48;;;;;;;;;;;;;;;12.21;100.00;97676.03;5064715;28;19924;-47
2024/04/05 02:29:13;;;;;;;;;;;;;;;12.23;100.00;97687.22;5069801;28;20023;-47
2024/04/05 02:31:38;;;;;;;;;;;;;;;12.18;100.00;97674.47;5067970;28;20018;-48
2024/04/05 02:34:04;;;;;;;;;;;;;;;12.31;100.00;97672.69;5068612;28;19920;-46
2024/04/05 02:36:29;;;;;;;;;;;;;;;12.26;100.00;97680.03;5070358;28;19974;-47
2024/04/05 02:38:54;;;;;;;;;;;;;;;12.17;100.00;97683.25;5062813;28;19923;-46
2024/04/05 02:41:20;;;;;;;;;;;;;;;12.17;100.00;97690.25;5066557;28;19951;-47
2024/04/05 02:43:45;;;;;;;;;;;;;;;12.11;100.00;97694.09;5065197;28;19946;-46
2024/04/05 02:46:11;;;;;;;;;;;;;;;12.16;100.00;97683.38;5063826;28;20003;-46
2024/04/05 02:48:36;;;;;;;;;;;;;;;12.14;100.00;97685.22;5067101;28;19934;-46
2024/04/05 02:51:02;;;;;;;;;;;;;;;12.15;100.00;97689.50;5062638;28;19913;-46
2024/04/05 02:53:27;;;;;;;;;;;;;;;12.10;100.00;97684.59;5063918;28;19943;-46
2024/04/05 02:55:52;;;;;;;;;;;;;;;11.98;100.00;97687.22;5064940;28;19930;-46
2024/04/05 02:58:17;;;;;;;;;;;;;;;12.08;100.00;97690.84;5062132;28;19912;-46
2024/04/05 03:00:43;;;;;;;;;;;;;;;12.07;100.00;97704.84;5062575;28;19935;-46
2024/04/05 03:03:08;;;;;;;;;;;;;;;12.12;100.00;97697.53;5060536;28;19951;-46
2024/04/05 03:05:34;;;;;;;;;;;;;;;12.11;100.00;97698.50;5065440;28;19932;-46
2024/04/05 03:07:59;;;;;;;;;;;;;;;12.04;100.00;97699.84;5062910;28;19936;-46
2024/04/05 03:10:24;;;;;;;;;;;;;;;11.94;100.00;97698.75;5060787;28;19916;-46
2024/04/05 03:12:50;;;;;;;;;;;;;;;11.93;100.00;97689.28;5063102;28;19943;-46
2024/04/05 03:15:15;;;;;;;;;;;;;;;11.91;100.00;97691.16;5064409;28;20041;-47
2024/04/05 03:17:41;;;;;;;;;;;;;;;11.87;100.00;97698.34;5063751;28;19992;-47
2024/04/05 03:20:06;;;;;;;;;;;;;;;11.93;100.00;97702.31;5063997;28;19921;-43
2024/04/05 03:22:32;;;;;;;;;;;;;;;11.85;100.00;97692.38;5062501;28;19913;-45
2024/04/05 03:24:57;;;;;;;;;;;;;;;11.89;100.00;97698.22;5062508;28;19917;-46
2024/04/05 03:27:22;;;;;;;;;;;;;;;11.83;100.00;97696.88;5066300;28;19966;-44
2024/04/05 03:29:49;;;;;;;;;;;;;;;11.77;100.00;97686.03;5060562;28;19916;-44
2024/04/05 03:32:15;;;;;;;;;;;;;;;11.71;100.00;97692.47;5067993;28;19938;-44
2024/04/05 03:34:40;;;;;;;;;;;;;;;11.76;100.00;97694.78;5063861;28;19929;-44
2024/04/05 03:37:06;;;;;;;;;;;;;;;11.63;100.00;97689.53;5063595;28;19945;-44
2024/04/05 03:39:31;;;;;;;;;;;;;;;11.73;100.00;97689.75;5064124;28;19923;-44
2024/04/05 03:41:56;;;;;;;;;;;;;;;11.71;100.00;97689.03;5067318;28;20271;-43
2024/04/05 03:44:21;;;;;;;;;;;;;;;11.52;100.00;97681.53;5065050;28;19938;-46
2024/04/05 03:46:47;;;;;;;;;;;;;;;11.71;100.00;97683.81;5062465;28;19923;-47
2024/04/05 03:49:12;;;;;;;;;;;;;;;11.59;100.00;97677.66;5062243;28;19985;-46
2024/04/05 03:51:37;;;;;;;;;;;;;;;11.59;100.00;97688.06;5070047;28;20323;-46
2024/04/05 03:54:03;;;;;;;;;;;;;;;11.61;100.00;97680.13;5063353;28;20470;-46
2024/04/05 03:56:28;;;;;;;;;;;;;;;11.55;100.00;97675.28;5064266;28;19920;-49
2024/04/05 03:58:54;;;;;;;;;;;;;;;11.48;100.00;97674.84;5063746;28;20264;-44
2024/04/05 04:01:19;;;;;;;;;;;;;;;11.41;100.00;97676.19;5064471;28;20284;-46
2024/04/05 04:03:44;;;;;;;;;;;;;;;11.59;100.00;97672.44;5062776;28;20236;-44
2024/04/05 04:06:09;;;;;;;;;;;;;;;11.54;100.00;97676.22;5062828;28;20272;-44
2024/04/05 04:08:35;;;;;;;;;;;;;;;11.39;100.00;97685.03;5062792;28;19942;-44
2024/04/05 04:11:01;;;;;;;;;;;;;;;11.55;100.00;97690.91;5066110;28;19924;-45
2024/04/05 04:13:26;;;;;;;;;;;;;;;11.33;100.00;97690.63;5059643;28;19965;-45
2024/04/05 04:15:51;;;;;;;;;;;;;;;11.35;100.00;97688.75;5065316;28;19913;-45
2024/04/05 04:18:16;;;;;;;;;;;;;;;11.23;100.00;97692.19;5063756;28;19924;-44
2024/04/05 04:20:42;;;;;;;;;;;;;;;11.21;100.00;97692.28;5066438;28;20283;-45
2024/04/05 04:23:07;;;;;;;;;;;;;;;11.12;100.00;97698.03;5069138;28;19978;-44
2024/04/05 04:25:33;;;;;;;;;;;;;;;11.26;100.00;97694.56;5066612;28;19920;-45
2024/04/05 04:27:58;;;;;;;;;;;;;;;11.18;100.00;97696.84;5064049;28;19931;-45
2024/04/05 04:30:23;;;;;;;;;;;;;;;11.16;100.00;97694.31;5072576;28;19942;-45
2024/04/05 04:32:48;;;;;;;;;;;;;;;11.17;100.00;97689.97;5067152;28;20229;-45
2024/04/05 04:35:14;;;;;;;;;;;;;;;11.21;100.00;97701.84;5065791;28;19967;-44
2024/04/05 04:37:40;;;;;;;;;;;;;;;11.18;100.00;97694.22;5057206;28;20011;-44
2024/04/05 04:40:06;;;;;;;;;;;;;;;11.06;100.00;97697.59;5060297;28;19920;-44
2024/04/05 04:42:31;;;;;;;;;;;;;;;11.06;100.00;97688.03;5064838;28;19931;-45
2024/04/05 04:44:57;;;;;;;;;;;;;;;11.07;100.00;97694.91;5062022;28;20398;-45
2024/04/05 04:47:25;;;;;;;;;;;;;;;11.12;100.00;97692.81;5067595;28;19912;-45
2024/04/05 04:49:50;;;;;;;;;;;;;;;11.16;100.00;97693.47;5064410;28;20321;-45
2024/04/05 04:52:15;;;;;;;;;;;;;;;11.16;100.00;97678.69;5057819;28;20395;-47
2024/04/05 04:54:41;;;;;;;;;;;;;;;11.14;100.00;97682.31;5065498;28;19912;-45
2024/04/05 04:57:08;;;;;;;;;;;;;;;11.09;100.00;97681.78;5060030;28;19966;-47
2024/04/05 04:59:33;;;;;;;;;;;;;;;11.19;100.00;97694.16;5060162;28;19930;-45
2024/04/05 05:01:59;;;;;;;;;;;;;;;11.21;100.00;97681.00;5063335;28;19951;-45
2024/04/05 05:04:24;;;;;;;;;;;;;;;11.24;100.00;97691.25;5064661;28;20363;-46
2024/04/05 05:06:50;;;;;;;;;;;;;;;11.35;100.00;97693.97;5064248;28;19917;-45
2024/04/05 05:09:16;;;;;;;;;;;;;;;11.24;100.00;97697.28;5059090;28;19949;-45
2024/04/05 05:11:41;;;;;;;;;;;;;;;11.13;100.00;97698.88;5063977;28;19939;-45
2024/04/05 05:14:06;;;;;;;;;;;;;;;11.11;100.00;97690.34;5064980;28;19947;-46
2024/04/05 05:16:32;;;;;;;;;;;;;;;11.08;100.00;97695.72;5059264;28;19932;-45
2024/04/05 05:18:57;;;;;;;;;;;;;;;11.03;100.00;97697.81;5063016;28;19931;-45
2024/04/05 05:21:23;;;;;;;;;;;;;;;10.93;100.00;97687.13;5057196;28;20467;-45
2024/04/05 05:23:48;;;;;;;;;;;;;;;10.94;100.00;97694.00;5062927;28;20033;-45
2024/04/05 05:26:13;;;;;;;;;;;;;;;10.85;100.00;97693.75;5066060;28;19916;-45
2024/04/05 05:28:39;;;;;;;;;;;;;;;10.89;100.00;97701.25;5062662;28;19927;-45
2024/04/05 05:31:04;;;;;;;;;;;;;;;10.90;100.00;97705.53;5064992;28;19933;-46
2024/04/05 05:33:29;;;;;;;;;;;;;;;11.03;100.00;97703.03;5063942;28;20176;-46
2024/04/05 05:35:54;;;;;;;;;;;;;;;10.97;100.00;97698.19;5066314;28;20000;-45
2024/04/05 05:38:19;;;;;;;;;;;;;;;10.98;100.00;97705.88;5058633;28;20020;-45
2024/04/05 05:40:45;;;;;;;;;;;;;;;11.02;100.00;97707.38;5062404;28;20338;-45
2024/04/05 05:43:11;;;;;;;;;;;;;;;11.21;100.00;97701.84;5066620;28;20039;-45
2024/04/05 05:45:36;;;;;;;;;;;;;;;11.19;100.00;97703.72;5068489;28;19974;-46
2024/04/05 05:48:01;;;;;;;;;;;;;;;11.31;100.00;97702.94;5065559;28;20316;-45
2024/04/05 05:50:27;;;;;;;;;;;;;;;11.53;100.00;97698.00;5064600;28;20418;-45
2024/04/05 05:52:52;;;;;;;;;;;;;;;11.88;100.00;97693.94;5058936;28;19963;-45
2024/04/05 05:55:17;;;;;;;;;;;;;;;11.90;100.00;97703.34;5062782;28;20247;-46
2024/04/05 05:57:43;;;;;;;;;;;;;;;12.29;100.00;97705.06;5063122;28;19948;-46
2024/04/05 06:00:11;;;;;;;;;;;;;;;12.42;100.00;97706.75;5066826;28;19992;-47
2024/04/05 06:02:37;;;;;;;;;;;;;;;12.57;100.00;97704.88;5063342;28;19950;-45
2024/04/05 06:05:03;;;;;;;;;;;;;;;12.80;100.00;97691.88;5059478;28;19973;-46
2024/04/05 06:07:28;;;;;;;;;;;;;;;13.05;100.00;97704.09;5059908;28;20379;-47
2024/04/05 06:09:54;;;;;;;;;;;;;;;13.00;100.00;97704.41;5066097;28;19985;-46
2024/04/05 06:12:19;;;;;;;;;;;;;;;13.47;100.00;97708.84;5057000;28;20233;-48
2024/04/05 06:14:44;;;;;;;;;;;;;;;13.85;100.00;97706.88;5062900;28;19935;-46
2024/04/05 06:17:10;;;;;;;;;;;;;;;14.27;100.00;97709.78;5061296;28;19912;-47
2024/04/05 06:19:36;;;;;;;;;;;;;;;14.41;100.00;97727.03;5062004;28;19930;-46
2024/04/05 06:22:02;;;;;;;;;;;;;;;14.82;100.00;97729.97;5068024;28;19931;-47
2024/04/05 06:24:27;;;;;;;;;;;;;;;15.22;100.00;97728.53;5065252;28;20236;-47
2024/04/05 06:26:52;;;;;;;;;;;;;;;15.57;100.00;97734.44;5068137;28;19938;-48
2024/04/05 06:29:18;;;;;;;;;;;;;;;15.88;100.00;97739.69;5066806;28;20262;-47
2024/04/05 06:31:43;;;;;;;;;;;;;;;16.10;100.00;97734.34;5064319;28;20108;-47
2024/04/05 06:34:08;;;;;;;;;;;;;;;16.24;100.00;97735.84;5075072;28;19996;-49
2024/04/05 06:36:33;;;;;;;;;;;;;;;17.43;100.00;97730.69;5068050;28;19934;-48
2024/04/05 06:38:59;;;;;;;;;;;;;;;18.37;94.19;97729.09;5070771;28;20059;-49
2024/04/05 06:41:25;;;;;;;;;;;;;;;20.11;82.74;97728.06;5070241;28;19953;-49
2024/04/05 06:43:50;;;;;;;;;;;;;;;20.37;77.81;97723.66;5069746;28;19917;-50
2024/04/05 06:46:15;;;;;;;;;;;;;;;19.44;80.33;97722.38;5072204;28;19947;-48
2024/04/05 06:48:41;;;;;;;;;;;;;;;20.07;80.90;97720.59;5065107;28;20387;-48
2024/04/05 06:51:11;;;;;;;;;;;;;;;20.21;80.13;97712.97;5068566;28;19927;-46
2024/04/05 06:53:36;;;;;;;;;;;;;;;20.37;79.27;97705.16;5067361;28;20015;-48
2024/04/05 06:56:02;;;;;;;;;;;;;;;19.39;83.51;97708.78;5065067;28;20375;-49
2024/04/05 06:58:27;;;;;;;;;;;;;;;18.77;86.23;97708.63;5063541;28;19943;-49
2024/04/05 07:00:52;;;;;;;;;;;;;;;18.16;88.53;97709.97;5063129;28;19975;-48
2024/04/05 07:03:19;;;;;;;;;;;;;;;18.38;90.18;97704.41;5071312;28;19916;-48
2024/04/05 07:05:44;;;;;;;;;;;;;;;18.08;91.53;97707.19;5067357;28;20398;-48
2024/04/05 07:08:09;;;;;;;;;;;;;;;18.32;91.34;97699.69;5065799;28;19931;-49
2024/04/05 07:10:36;;;;;;;;;;;;;;;18.28;90.65;97690.41;5062388;28;20045;-48
2024/04/05 07:13:01;;;;;;;;;;;;;;;18.50;90.60;97698.00;5065827;28;19954;-47
2024/04/05 07:15:28;;;;;;;;;;;;;;;18.49;89.62;97691.09;5065172;28;20081;-48
2024/04/05 07:17:55;;;;;;;;;;;;;;;18.51;90.53;97691.75;5067944;28;20335;-49
2024/04/05 07:20:21;;;;;;;;;;;;;;;18.49;92.69;97696.34;5069410;28;19957;-49
2024/04/05 07:22:47;;;;;;;;;;;;;;;18.32;92.83;97694.44;5067416;28;20003;-50
2024/04/05 07:25:13;;;;;;;;;;;;;;;18.47;93.09;97693.03;5072617;28;20030;-48
2024/04/05 07:27:38;;;;;;;;;;;;;;;18.79;91.82;97698.75;5062711;28;20255;-49
2024/04/05 07:30:04;;;;;;;;;;;;;;;18.95;89.93;97704.25;5062652;28;19912;-49
2024/04/05 07:32:29;;;;;;;;;;;;;;;18.86;91.62;97705.09;5060043;28;19927;-48
2024/04/05 07:34:55;;;;;;;;;;;;;;;19.37;87.65;97705.47;5060735;28;20436;-47
2024/04/05 07:37:20;;;;;;;;;;;;;;;20.22;84.54;97706.69;5062371;28;19913;-47
2024/04/05 07:39:46;;;;;;;;;;;;;;;19.91;84.78;97700.09;5062363;28;20076;-48
2024/04/05 07:42:11;;;;;;;;;;;;;;;20.15;82.09;97695.06;5068838;28;19960;-47
2024/04/05 07:44:36;;;;;;;;;;;;;;;19.69;81.45;97699.69;5064449;28;19927;-48
2024/04/05 07:47:02;;;;;;;;;;;;;;;20.28;80.12;97692.03;5063539;28;19927;-49
2024/04/05 07:49:27;;;;;;;;;;;;;;;20.74;77.62;97689.03;5061330;28;19931;-48
2024/04/05 07:51:52;;;;;;;;;;;;;;;21.24;76.07;97692.63;5063331;28;19927;-48
2024/04/05 07:54:18;;;;;;;;;;;;;;;23.33;69.11;97700.50;5064423;28;19947;-49
2024/04/05 07:56:43;;;;;;;;;;;;;;;24.93;62.25;97694.03;5064607;28;19927;-49
2024/04/05 07:59:10;;;;;;;;;;;;;;;24.59;61.34;97697.19;5069797;28;19968;-47
2024/04/05 08:01:35;;;;;;;;;;;;;;;26.22;56.91;97704.69;5061141;28;19913;-48
2024/04/05 08:04:01;;;;;;;;;;;;;;;29.55;50.96;97713.75;5068261;28;19920;-47
2024/04/05 08:06:26;;;;;;;;;;;;;;;28.80;50.06;97708.09;5062248;28;19937;-50
2024/04/05 08:08:51;;;;;;;;;;;;;;;28.25;49.54;97703.88;5067362;28;19950;-49
2024/04/05 08:11:17;;;;;;;;;;;;;;;28.39;49.74;97699.44;5065378;28;19943;-48
2024/04/05 08:13:42;;;;;;;;;;;;;;;29.09;47.26;97692.41;5064155;28;19951;-49
2024/04/05 08:16:07;;;;;;;;;;;;;;;29.36;46.54;97693.97;5065626;28;20440;-48
2024/04/05 08:18:33;;;;;;;;;;;;;;;30.67;44.61;97695.00;5063560;28;20407;-48
2024/04/05 08:21:02;;;;;;;;;;;;;;;30.21;45.62;97683.72;5065388;28;19962;-51
2024/04/05 08:23:27;;;;;;;;;;;;;;;30.58;45.35;97690.06;5061076;28;19917;-48
2024/04/05 08:25:53;;;;;;;;;;;;;;;31.33;44.59;97695.19;5065222;28;19936;-49
2024/04/05 08:28:18;;;;;;;;;;;;;;;31.70;43.19;97700.34;5061846;28;19947;-49
2024/04/05 08:30:44;;;;;;;;;;;;;;;32.02;42.45;97696.44;5066387;28;19971;-49
2024/04/05 08:33:09;;;;;;;;;;;;;;;33.67;42.10;97693.22;5065709;28;20295;-48
2024/04/05 08:35:35;;;;;;;;;;;;;;;31.89;43.61;97692.06;5062376;28;20395;-49
2024/04/05 08:38:03;;;;;;;;;;;;;;;32.96;41.65;97694.56;5066621;28;19938;-48
2024/04/05 08:40:29;;;;;;;;;;;;;;;33.65;40.17;97694.50;5060573;28;19934;-49
2024/04/05 08:42:59;;;;;;;;;;;;;;;32.07;42.03;97692.00;5067288;28;20125;-49
2024/04/05 08:45:25;;;;;;;;;;;;;;;28.24;50.01;97690.72;5064501;28;19924;-51
2024/04/05 08:47:51;;;;;;;;;;;;;;;30.06;45.87;97691.19;5064312;28;20463;-49
2024/04/05 08:50:17;;;;;;;;;;;;;;;31.99;43.22;97680.69;5070521;28;19920;-50
2024/04/05 08:52:43;;;;;;;;;;;;;;;33.02;40.46;97670.19;5066248;28;19920;-49
2024/04/05 08:55:08;;;;;;;;;;;;;;;32.94;40.19;97665.13;5067521;28;20405;-50
2024/04/05 08:57:39;;;;;;;;;;;;;;;33.51;40.11;97664.28;5068332;28;19916;-48
2024/04/05 09:00:07;;;;;;;;;;;;;;;29.94;42.03;97658.03;5063661;28;19916;-48
2024/04/05 09:02:35;;;;;;;;;;;;;;;26.64;46.35;97653.94;5063230;28;19927;-48
2024/04/05 09:05:03;;;;;;;;;;;;;;;25.12;49.61;97658.88;5068012;28;19924;-48
2024/04/05 09:07:29;;;;;;;;;;;;;;;25.87;50.06;97652.19;5064999;28;19927;-50
2024/04/05 09:09:55;;;;;;;;;;;;;;;24.68;51.16;97663.34;5070684;28;19927;-47
2024/04/05 09:12:25;;;;;;;;;;;;;;;23.91;53.04;97662.81;5061587;28;19973;-48
2024/04/05 09:14:57;;;;;;;;;;;;;;;24.25;55.50;97650.72;5065052;28;19982;-48
2024/04/05 09:17:23;;;;;;;;;;;;;;;25.58;53.26;97647.78;5062691;28;20248;-50
2024/04/05 09:19:48;;;;;;;;;;;;;;;24.98;52.61;97649.00;5061521;28;19939;-49
2024/04/05 09:22:19;;;;;;;;;;;;;;;25.38;52.37;97641.38;5068013;28;19959;-50
2024/04/05 09:24:45;;;;;;;;;;;;;;;25.92;52.30;97639.16;5065377;28;20000;-47
2024/04/05 09:27:10;;;;;;;;;;;;;;;25.77;51.20;97635.66;5069519;28;19956;-47
2024/04/05 09:29:36;;;;;;;;;;;;;;;25.90;51.07;97647.34;5061635;28;19967;-48
2024/04/05 09:32:01;;;;;;;;;;;;;;;25.75;50.59;97640.38;5070390;28;20003;-47
2024/04/05 09:34:28;;;;;;;;;;;;;;;25.77;51.70;97646.31;5065725;28;19990;-48
2024/04/05 09:36:55;;;;;;;;;;;;;;;25.71;50.81;97644.41;5064458;28;19925;-49
2024/04/05 09:39:21;;;;;;;;;;;;;;;25.90;49.94;97641.16;5060908;28;20371;-49
2024/04/05 09:41:48;;;;;;;;;;;;;;;25.71;49.83;97641.75;5065355;28;19942;-48
2024/04/05 09:44:16;;;;;;;;;;;;;;;26.06;51.07;97635.59;5068375;28;20035;-49
2024/04/05 09:46:43;;;;;;;;;;;;;;;25.26;50.52;97632.22;5062562;28;19913;-47
2024/04/05 09:49:08;;;;;;;;;;;;;;;26.04;50.17;97638.44;5064839;28;19977;-50
2024/04/05 09:51:48;;;;;;;;;;;;;;;25.52;49.72;97634.38;5068433;28;19928;-48
2024/04/05 09:54:19;;;;;;;;;;;;;;;25.68;49.50;97642.13;5066026;28;19924;-49
2024/04/05 09:56:45;;;;;;;;;;;;;;;26.54;48.60;97629.44;5067365;28;19991;-50
2024/04/05 09:59:23;;;;;;;;;;;;;;;25.35;49.95;97622.28;5069276;28;19951;-48
2024/04/05 10:01:49;;;;;;;;;;;;;;;25.77;49.57;97620.50;5068541;28;20340;-50
2024/04/05 10:04:15;;;;;;;;;;;;;;;26.45;50.14;97614.56;5068587;28;20309;-50
2024/04/05 10:06:42;;;;;;;;;;;;;;;26.13;50.69;97620.47;5064030;28;19946;-50
2024/04/05 10:09:13;;;;;;;;;;;;;;;27.10;48.93;97631.84;5065112;28;19949;-49
2024/04/05 10:11:40;;;;;;;;;;;;;;;25.81;49.28;97621.78;5065035;28;20373;-49
2024/04/05 10:14:05;;;;;;;;;;;;;;;26.71;48.74;97614.75;5068907;28;20386;-49
2024/04/05 10:16:31;;;;;;;;;;;;;;;27.05;47.55;97614.75;5063555;28;19952;-48
2024/04/05 10:18:56;;;;;;;;;;;;;;;26.57;47.91;97607.66;5065868;28;19929;-48
2024/04/05 10:21:30;;;;;;;;;;;;;;;26.43;46.22;97587.22;5060743;28;19964;-48
2024/04/05 10:23:59;;;;;;;;;;;;;;;26.88;46.36;97594.72;5062416;28;20171;-48
2024/04/05 10:26:25;;;;;;;;;;;;;;;26.76;46.73;97574.94;5061833;28;19936;-49
2024/04/05 10:28:58;;;;;;;;;;;;;;;26.55;46.69;97570.50;5068262;28;19933;-48
2024/04/05 10:31:25;;;;;;;;;;;;;;;28.30;46.28;97580.09;5060132;28;20347;-49
2024/04/05 10:33:51;;;;;;;;;;;;;;;27.28;45.58;97576.03;5062943;28;19972;-48
2024/04/05 10:36:16;;;;;;;;;;;;;;;27.61;44.09;97570.75;5058068;28;20370;-50
2024/04/05 10:38:43;;;;;;;;;;;;;;;28.77;43.88;97569.97;5057496;28;20373;-48
2024/04/05 10:41:08;;;;;;;;;;;;;;;26.27;45.49;97558.16;5059233;28;19920;-49
2024/04/05 10:43:33;;;;;;;;;;;;;;;26.16;46.14;97556.00;5057629;28;19961;-50
2024/04/05 10:45:59;;;;;;;;;;;;;;;26.25;46.64;97549.53;5059549;28;19989;-50
2024/04/05 10:48:24;;;;;;;;;;;;;;;26.35;45.72;97545.50;5057681;28;19942;-48
2024/04/05 10:50:50;;;;;;;;;;;;;;;26.14;45.79;97552.72;5058424;28;19923;-49
2024/04/05 10:53:16;;;;;;;;;;;;;;;25.89;45.16;97538.16;5067451;28;19944;-47
2024/04/05 10:55:42;;;;;;;;;;;;;;;27.43;43.98;97530.38;5072097;28;20366;-47
2024/04/05 10:58:07;;;;;;;;;;;;;;;27.65;43.70;97526.53;5067525;28;19973;-48
2024/04/05 11:00:33;;;;;;;;;;;;;;;27.82;43.37;97515.25;5072738;28;19964;-48
2024/04/05 11:02:58;;;;;;;;;;;;;;;26.82;42.88;97528.72;5066301;28;19947;-47
2024/04/05 11:05:25;;;;;;;;;;;;;;;26.69;42.29;97521.47;5063380;28;19946;-47
2024/04/05 11:08:00;;;;;;;;;;;;;;;28.21;41.84;97519.75;5063441;28;19941;-48
2024/04/05 11:10:32;;;;;;;;;;;;;;;30.99;38.68;97529.78;5066692;28;19944;-49
2024/04/05 11:12:59;;;;;;;;;;;;;;;28.54;39.57;97524.06;5065312;28;19944;-50
2024/04/05 11:15:24;;;;;;;;;;;;;;;28.40;41.13;97535.00;5063457;28;19939;-48
2024/04/05 11:17:59;;;;;;;;;;;;;;;28.66;41.19;97524.25;5060083;28;19948;-48
2024/04/05 11:20:30;;;;;;;;;;;;;;;28.89;39.47;97535.28;5063898;28;19994;-47
2024/04/05 11:23:02;;;;;;;;;;;;;;;29.21;40.03;97531.66;5070124;28;19946;-48
2024/04/05 11:25:28;;;;;;;;;;;;;;;28.72;39.41;97528.75;5069908;28;19936;-48
2024/04/05 11:27:54;;;;;;;;;;;;;;;28.63;41.57;97520.13;5065933;28;19927;-49
2024/04/05 11:30:19;;;;;;;;;;;;;;;27.45;40.96;97525.69;5056174;28;20247;-48
2024/04/05 11:32:45;;;;;;;;;;;;;;;27.60;42.06;97531.66;5070527;28;20265;-48
2024/04/05 11:35:14;;;;;;;;;;;;;;;27.97;42.38;97533.75;5069229;28;19952;-47
2024/04/05 11:37:43;;;;;;;;;;;;;;;28.19;42.24;97535.22;5057952;28;19952;-49
2024/04/05 11:40:09;;;;;;;;;;;;;;;26.91;42.17;97535.56;5055393;28;19917;-47
2024/04/05 11:42:37;;;;;;;;;;;;;;;26.64;42.43;97539.94;5061500;28;20354;-47
2024/04/05 11:45:03;;;;;;;;;;;;;;;26.25;43.52;97539.66;5059181;28;19929;-48
2024/04/05 11:47:28;;;;;;;;;;;;;;;26.21;43.22;97542.91;5060703;28;19928;-47
2024/04/05 11:49:53;;;;;;;;;;;;;;;26.13;43.25;97529.72;5063865;28;20026;-47
2024/04/05 11:52:20;;;;;;;;;;;;;;;26.41;43.85;97534.03;5063009;28;20262;-47
2024/04/05 11:54:46;;;;;;;;;;;;;;;26.43;44.53;97536.50;5064916;28;19924;-50
2024/04/05 11:57:14;;;;;;;;;;;;;;;26.49;43.90;97530.38;5065633;28;20329;-48
2024/04/05 11:59:39;;;;;;;;;;;;;;;26.33;44.34;97528.81;5062082;28;19920;-48
2024/04/05 12:02:04;;;;;;;;;;;;;;;25.42;43.81;97525.41;5062044;28;20277;-47
2024/04/05 12:04:30;;;;;;;;;;;;;;;25.79;45.07;97534.97;5064160;28;19947;-47
2024/04/05 12:06:55;;;;;;;;;;;;;;;25.81;45.59;97532.94;5065829;28;20037;-47
2024/04/05 12:09:20;;;;;;;;;;;;;;;25.61;46.04;97524.75;5060776;28;19996;-48
2024/04/05 12:11:45;;;;;;;;;;;;;;;25.43;46.92;97521.72;5060336;28;19936;-48
2024/04/05 12:14:11;;;;;;;;;;;;;;;25.20;47.75;97520.19;5064516;28;20316;-47
2024/04/05 12:16:36;;;;;;;;;;;;;;;24.98;47.01;97527.31;5057153;28;19925;-48
2024/04/05 12:19:02;;;;;;;;;;;;;;;25.09;46.73;97534.84;5061795;28;19931;-47
2024/04/05 12:21:27;;;;;;;;;;;;;;;25.03;47.59;97540.06;5056102;28;19913;-46
2024/04/05 12:23:53;;;;;;;;;;;;;;;24.79;47.91;97537.75;5065213;28;19989;-47
2024/04/05 12:26:19;;;;;;;;;;;;;;;24.59;48.40;97544.66;5065453;28;20019;-46
2024/04/05 12:28:45;;;;;;;;;;;;;;;24.55;48.44;97535.34;5060484;28;19935;-47
2024/04/05 12:31:10;;;;;;;;;;;;;;;24.74;47.32;97524.16;5058385;28;20282;-47
2024/04/05 12:33:35;;;;;;;;;;;;;;;24.99;47.26;97533.50;5061205;28;20011;-48